createdAt,value
2018-10-11T00:00:07.932Z,9.00
2018-10-11T00:02:42.620Z,10.20
2018-10-11T00:05:17.297Z,9.43
2018-10-11T00:07:51.904Z,9.77
2018-10-11T00:10:27.104Z,9.73
2018-10-11T00:13:01.660Z,9.50
2018-10-11T00:15:36.388Z,9.43
2018-10-11T00:18:11.071Z,10.37
2018-10-11T00:20:45.827Z,9.43
2018-10-11T00:23:20.588Z,9.90
2018-10-11T00:25:55.534Z,10.20
2018-10-11T00:28:42.655Z,10.40
2018-10-11T00:31:20.675Z,9.90
2018-10-11T00:33:55.436Z,9.83
2018-10-11T00:36:29.856Z,9.60
2018-10-11T00:39:05.606Z,9.80
2018-10-11T00:41:40.042Z,10.40
2018-10-11T00:44:16.256Z,9.60
2018-10-11T00:46:50.984Z,9.80
2018-10-11T00:49:25.777Z,9.63
2018-10-11T00:52:00.596Z,10.57
2018-10-11T00:54:35.744Z,10.43
2018-10-11T00:57:10.376Z,10.60
2018-10-11T00:59:44.904Z,10.33
2018-10-11T01:02:19.440Z,10.17
2018-10-11T01:04:53.989Z,10.50
2018-10-11T01:07:28.559Z,10.27
2018-10-11T01:10:03.211Z,10.57
2018-10-11T01:12:37.773Z,10.33
2018-10-11T01:15:12.798Z,11.07
2018-10-11T01:17:47.409Z,10.23
2018-10-11T01:20:22.098Z,10.53
2018-10-11T01:22:56.975Z,10.13
2018-10-11T01:25:31.459Z,10.60
2018-10-11T01:28:06.038Z,10.03
2018-10-11T01:31:43.799Z,10.30
2018-10-11T01:34:18.280Z,9.50
2018-10-11T01:36:52.929Z,9.60
2018-10-11T01:39:35.614Z,10.27
2018-10-11T01:42:10.579Z,10.13
2018-10-11T01:44:45.211Z,10.37
2018-10-11T01:47:19.954Z,10.23
2018-10-11T01:49:55.149Z,11.57
2018-10-11T01:52:30.096Z,10.00
2018-10-11T01:55:04.469Z,11.20
2018-10-11T01:57:39.011Z,11.47
2018-10-11T02:00:13.578Z,11.20
2018-10-11T02:02:48.053Z,10.47
2018-10-11T02:05:22.780Z,11.53
2018-10-11T02:07:58.304Z,10.87
2018-10-11T02:10:33.008Z,10.57
2018-10-11T02:13:07.783Z,11.20
2018-10-11T02:15:42.536Z,10.80
2018-10-11T02:18:17.290Z,11.20
2018-10-11T02:20:51.958Z,11.00
2018-10-11T02:23:27.055Z,11.37
2018-10-11T02:26:01.773Z,11.20
2018-10-11T02:28:36.293Z,11.27
2018-10-11T02:31:10.866Z,10.87
2018-10-11T02:33:45.429Z,11.07
2018-10-11T02:36:20.058Z,10.33
2018-10-11T02:38:54.620Z,11.63
2018-10-11T02:41:29.170Z,11.27
2018-10-11T02:44:03.813Z,11.13
2018-10-11T02:46:58.786Z,11.60
2018-10-11T02:49:51.543Z,11.33
2018-10-11T02:52:45.497Z,11.87
2018-10-11T02:55:22.647Z,11.80
2018-10-11T02:58:08.872Z,11.60
2018-10-11T03:00:43.489Z,11.43
2018-10-11T03:03:21.292Z,11.40
2018-10-11T03:06:00.090Z,12.83
2018-10-11T03:11:52.215Z,11.93
2018-10-11T03:14:27.241Z,12.40
2018-10-11T03:17:01.866Z,12.20
2018-10-11T03:19:36.509Z,12.40
2018-10-11T03:22:11.502Z,12.00
2018-10-11T03:24:46.296Z,11.70
2018-10-11T03:27:21.149Z,11.80
2018-10-11T03:29:55.688Z,12.37
2018-10-11T03:32:30.300Z,12.63
2018-10-11T03:35:05.031Z,12.10
2018-10-11T03:37:39.567Z,12.50
2018-10-11T03:40:14.003Z,12.67
2018-10-11T03:42:48.697Z,12.40
2018-10-11T03:45:23.228Z,12.83
2018-10-11T03:47:57.776Z,12.80
2018-10-11T03:50:32.402Z,13.17
2018-10-11T03:53:06.953Z,13.17
2018-10-11T03:55:41.533Z,13.70
2018-10-11T03:58:19.417Z,12.37
2018-10-11T04:00:57.273Z,13.47
2018-10-11T04:03:31.822Z,12.80
2018-10-11T04:06:06.567Z,14.73
2018-10-11T04:08:41.521Z,13.43
2018-10-11T04:11:16.192Z,13.23
2018-10-11T04:13:51.242Z,14.47
2018-10-11T04:16:25.931Z,13.60
2018-10-11T04:19:10.808Z,13.97
2018-10-11T04:21:49.130Z,14.57
2018-10-11T04:24:35.524Z,13.83
2018-10-11T04:27:10.313Z,13.77
2018-10-11T04:29:44.968Z,14.17
2018-10-11T04:32:19.405Z,14.50
2018-10-11T04:34:54.156Z,13.70
2018-10-11T04:37:28.740Z,14.07
2018-10-11T04:40:03.551Z,14.30
2018-10-11T04:42:38.207Z,14.07
2018-10-11T04:45:12.850Z,14.20
2018-10-11T04:47:47.389Z,14.27
2018-10-11T04:50:21.995Z,13.73
2018-10-11T04:52:57.214Z,13.77
2018-10-11T04:55:31.790Z,15.17
2018-10-11T04:58:06.442Z,14.60
2018-10-11T05:00:41.433Z,15.23
2018-10-11T05:03:15.730Z,14.87
2018-10-11T05:05:50.353Z,15.17
2018-10-11T05:08:24.838Z,14.77
2018-10-11T05:10:59.260Z,14.70
2018-10-11T05:13:37.642Z,14.50
2018-10-11T05:16:12.810Z,15.20
2018-10-11T05:18:50.795Z,15.27
2018-10-11T05:21:25.478Z,15.13
2018-10-11T05:24:00.162Z,15.93
2018-10-11T05:26:34.725Z,16.70
2018-10-11T05:29:09.272Z,14.63
2018-10-11T05:31:44.195Z,15.30
2018-10-11T05:34:18.726Z,16.07
2018-10-11T05:36:53.359Z,15.43
2018-10-11T05:39:27.941Z,14.33
2018-10-11T05:42:02.439Z,15.27
2018-10-11T05:44:36.990Z,15.80
2018-10-11T05:47:11.536Z,15.97
2018-10-11T05:49:46.359Z,16.87
2018-10-11T05:52:20.948Z,16.60
2018-10-11T05:54:55.458Z,16.07
2018-10-11T05:57:29.995Z,15.30
2018-10-11T06:00:04.683Z,16.07
2018-10-11T06:02:50.516Z,16.77
2018-10-11T06:05:25.454Z,16.43
2018-10-11T06:08:01.293Z,15.53
2018-10-11T06:10:38.782Z,16.00
2018-10-11T06:13:13.907Z,16.33
2018-10-11T06:15:48.553Z,16.40
2018-10-11T06:18:23.150Z,16.40
2018-10-11T06:20:57.639Z,15.90
2018-10-11T06:23:32.181Z,16.67
2018-10-11T06:26:06.779Z,16.33
2018-10-11T06:28:53.706Z,16.50
2018-10-11T06:31:28.320Z,15.93
2018-10-11T06:34:02.885Z,15.97
2018-10-11T06:36:37.483Z,15.77
2018-10-11T06:39:12.584Z,17.07
2018-10-11T06:41:47.249Z,16.73
2018-10-11T06:44:21.935Z,15.87
2018-10-11T06:46:56.645Z,16.87
2018-10-11T06:49:31.237Z,16.70
2018-10-11T06:52:06.308Z,16.77
2018-10-11T06:54:41.139Z,16.43
2018-10-11T06:57:15.572Z,16.87
2018-10-11T06:59:50.091Z,16.10
2018-10-11T07:02:24.362Z,15.90
2018-10-11T07:04:58.662Z,16.90
2018-10-11T07:07:32.932Z,16.00
2018-10-11T07:10:07.217Z,15.60
2018-10-11T07:12:41.792Z,15.43
2018-10-11T07:15:16.153Z,14.43
2018-10-11T07:17:51.024Z,14.20
2018-10-11T07:20:25.294Z,14.37
2018-10-11T07:22:59.643Z,15.60
2018-10-11T07:25:34.228Z,15.07
2018-10-11T07:28:08.696Z,14.73
2018-10-11T07:30:43.289Z,14.63
2018-10-11T07:33:17.940Z,14.90
2018-10-11T07:35:52.423Z,14.67
2018-10-11T07:38:26.784Z,16.07
2018-10-11T07:41:01.540Z,15.07
2018-10-11T07:43:36.041Z,15.17
2018-10-11T07:46:10.622Z,15.13
2018-10-11T07:48:45.339Z,15.77
2018-10-11T07:51:19.996Z,15.93
2018-10-11T07:53:58.481Z,15.07
2018-10-11T07:56:33.701Z,15.33
2018-10-11T07:59:08.348Z,17.67
2018-10-11T08:01:43.511Z,16.03
2018-10-11T08:04:17.960Z,15.57
2018-10-11T08:06:52.527Z,15.63
2018-10-11T08:09:27.038Z,16.00
2018-10-11T08:12:02.230Z,15.30
2018-10-11T08:14:36.669Z,15.50
2018-10-11T08:17:11.502Z,15.73
2018-10-11T08:19:45.603Z,15.57
2018-10-11T08:22:19.916Z,16.47
2018-10-11T08:24:54.494Z,14.73
2018-10-11T08:27:29.013Z,15.63
2018-10-11T08:30:04.039Z,15.77
2018-10-11T08:32:38.624Z,15.87
2018-10-11T08:35:13.187Z,16.57
2018-10-11T08:37:48.082Z,14.80
2018-10-11T08:40:22.632Z,14.67
2018-10-11T08:42:57.145Z,15.33
2018-10-11T08:45:32.001Z,15.00
2018-10-11T08:48:17.790Z,15.27
2018-10-11T08:50:52.876Z,14.77
2018-10-11T08:53:27.409Z,15.10
2018-10-11T08:56:02.174Z,15.37
2018-10-11T08:58:36.847Z,14.63
2018-10-11T09:01:11.407Z,14.60
2018-10-11T09:03:46.170Z,13.67
2018-10-11T09:06:20.563Z,14.03
2018-10-11T09:08:55.101Z,14.00
2018-10-11T09:11:30.045Z,14.80
2018-10-11T09:14:04.522Z,13.43
2018-10-11T09:16:38.945Z,13.63
2018-10-11T09:19:13.781Z,13.03
2018-10-11T09:21:48.393Z,13.60
2018-10-11T09:24:22.979Z,13.27
2018-10-11T09:26:57.606Z,13.50
2018-10-11T09:29:32.299Z,12.80
2018-10-11T09:32:06.773Z,12.77
2018-10-11T09:34:41.255Z,12.70
2018-10-11T09:37:15.924Z,12.83
2018-10-11T09:39:50.815Z,12.53
2018-10-11T09:42:25.250Z,13.47
2018-10-11T09:44:59.742Z,12.30
2018-10-11T09:47:34.489Z,11.93
2018-10-11T09:50:08.921Z,11.80
2018-10-11T09:52:43.855Z,12.80
2018-10-11T09:55:18.479Z,11.60
2018-10-11T09:57:53.045Z,12.57
2018-10-11T10:00:38.990Z,12.17
2018-10-11T10:03:13.602Z,11.70
2018-10-11T10:05:48.109Z,11.23
2018-10-11T10:08:22.528Z,11.47
2018-10-11T10:10:57.243Z,11.73
2018-10-11T10:13:31.804Z,10.83
2018-10-11T10:16:06.337Z,10.63
2018-10-11T10:18:40.960Z,10.40
2018-10-11T10:21:16.521Z,9.07
2018-10-11T10:23:50.995Z,10.37
2018-10-11T10:26:25.631Z,10.57
2018-10-11T10:29:00.185Z,9.80
2018-10-11T10:31:35.122Z,9.33
2018-10-11T10:34:09.813Z,9.57
2018-10-11T10:36:44.511Z,10.20
2018-10-11T10:39:19.022Z,9.17
2018-10-11T10:41:53.648Z,8.40
2018-10-11T10:44:28.637Z,9.90
2018-10-11T10:47:03.367Z,8.50
2018-10-11T10:49:39.190Z,8.50
2018-10-11T10:52:13.776Z,8.50
2018-10-11T10:54:48.382Z,7.50
2018-10-11T10:57:22.960Z,8.27
2018-10-11T10:59:57.663Z,9.40
2018-10-11T11:02:32.461Z,9.17
2018-10-11T11:05:06.902Z,9.13
2018-10-11T11:07:41.530Z,8.07
2018-10-11T11:10:16.183Z,7.93
2018-10-11T11:12:50.834Z,7.23
2018-10-11T11:15:25.329Z,6.67
2018-10-11T11:18:00.031Z,6.30
2018-10-11T11:20:34.849Z,5.20
2018-10-11T11:23:09.440Z,5.60
2018-10-11T11:25:43.986Z,5.30
2018-10-11T11:28:18.644Z,4.83
2018-10-11T11:30:53.175Z,4.87
2018-10-11T11:33:29.577Z,5.70
2018-10-11T11:36:04.423Z,5.57
2018-10-11T11:38:42.275Z,5.53
2018-10-11T11:41:17.793Z,5.50
2018-10-11T11:43:52.181Z,4.50
2018-10-11T11:46:26.817Z,5.40
2018-10-11T11:49:01.335Z,5.13
2018-10-11T11:51:35.859Z,5.03
2018-10-11T11:54:23.728Z,4.93
2018-10-11T11:59:57.324Z,5.10
2018-10-11T12:02:31.800Z,5.00
2018-10-11T12:05:07.162Z,5.23
2018-10-11T12:07:41.974Z,5.10
2018-10-11T12:10:16.601Z,5.20
2018-10-11T12:12:55.112Z,5.50
2018-10-11T12:15:30.470Z,5.17
2018-10-11T12:18:05.799Z,5.80
2018-10-11T12:20:41.447Z,5.40
2018-10-11T12:23:16.063Z,5.07
2018-10-11T12:25:50.664Z,4.23
2018-10-11T12:28:25.217Z,4.63
2018-10-11T12:30:59.818Z,5.10
2018-10-11T12:33:34.300Z,5.27
2018-10-11T12:36:08.866Z,5.00
2018-10-11T12:38:43.556Z,5.27
2018-10-11T12:41:18.248Z,5.90
2018-10-11T12:43:52.828Z,4.93
2018-10-11T12:46:27.477Z,5.20
2018-10-11T12:49:01.987Z,5.37
2018-10-11T12:51:36.492Z,5.13
2018-10-11T12:54:11.152Z,4.43
2018-10-11T12:56:45.982Z,4.53
2018-10-11T12:59:20.508Z,4.97
2018-10-11T13:01:55.028Z,5.00
2018-10-11T13:04:29.492Z,4.97
2018-10-11T13:07:03.987Z,5.30
2018-10-11T13:09:38.689Z,4.97
2018-10-11T13:12:13.263Z,5.70
2018-10-11T13:14:48.089Z,5.23
2018-10-11T13:17:22.588Z,5.60
2018-10-11T13:19:57.304Z,5.90
2018-10-11T13:22:31.828Z,5.63
2018-10-11T13:25:06.451Z,5.50
2018-10-11T13:27:41.521Z,5.07
2018-10-11T13:30:15.989Z,5.80
2018-10-11T13:32:50.521Z,6.00
2018-10-11T13:35:25.707Z,5.13
2018-10-11T13:38:00.224Z,6.10
2018-10-11T13:40:34.774Z,6.10
2018-10-11T13:43:09.477Z,5.77
2018-10-11T13:45:44.210Z,5.50
2018-10-11T13:48:18.753Z,5.77
2018-10-11T13:50:53.656Z,5.20
2018-10-11T13:53:28.214Z,5.47
2018-10-11T13:56:02.797Z,5.33
2018-10-11T13:58:37.539Z,5.37
2018-10-11T14:01:12.157Z,5.80
2018-10-11T14:03:47.157Z,5.00
2018-10-11T14:06:21.875Z,5.63
2018-10-11T14:08:56.496Z,5.50
2018-10-11T14:11:31.044Z,5.23
2018-10-11T14:14:05.870Z,5.73
2018-10-11T14:16:40.245Z,5.30
2018-10-11T14:19:14.786Z,5.57
2018-10-11T14:21:49.388Z,6.07
2018-10-11T14:24:24.069Z,5.73
2018-10-11T14:26:58.656Z,6.27
2018-10-11T14:29:33.312Z,5.83
2018-10-11T14:32:08.033Z,5.60
2018-10-11T14:34:43.194Z,5.70
2018-10-11T14:37:17.771Z,5.57
2018-10-11T14:39:52.156Z,6.03
2018-10-11T14:42:26.733Z,6.20
2018-10-11T14:45:01.398Z,6.33
2018-10-11T14:47:35.884Z,5.60
2018-10-11T14:50:10.472Z,6.50
2018-10-11T14:52:45.253Z,6.60
2018-10-11T14:55:19.905Z,5.90
2018-10-11T14:57:54.486Z,5.70
2018-10-11T15:00:29.058Z,6.17
2018-10-11T15:03:03.861Z,5.90
2018-10-11T15:05:38.357Z,6.23
2018-10-11T15:08:12.845Z,6.47
2018-10-11T15:10:47.530Z,5.93
2018-10-11T15:13:22.492Z,5.53
2018-10-11T15:15:57.136Z,6.53
2018-10-11T15:18:31.782Z,6.23
2018-10-11T15:21:06.603Z,6.13
2018-10-11T15:23:41.503Z,6.47
2018-10-11T15:26:16.408Z,6.83
2018-10-11T15:28:50.927Z,6.33
2018-10-11T15:31:25.621Z,6.67
2018-10-11T15:34:00.025Z,6.40
2018-10-11T15:36:34.555Z,5.93
2018-10-11T15:39:10.664Z,6.80
2018-10-11T15:41:45.205Z,6.77
2018-10-11T15:44:19.701Z,6.77
2018-10-11T15:46:54.389Z,6.90
2018-10-11T15:49:28.865Z,7.07
2018-10-11T15:52:03.572Z,6.77
2018-10-11T15:54:38.296Z,7.13
2018-10-11T15:57:12.865Z,6.97
2018-10-11T15:59:47.584Z,7.33
2018-10-11T16:02:22.074Z,7.03
2018-10-11T16:04:56.641Z,7.37
2018-10-11T16:07:31.248Z,7.27
2018-10-11T16:10:06.097Z,7.30
2018-10-11T16:12:40.637Z,6.57
2018-10-11T16:15:15.563Z,6.67
2018-10-11T16:17:50.240Z,6.77
2018-10-11T16:20:24.725Z,7.30
2018-10-11T16:22:59.410Z,6.87
2018-10-11T16:25:34.276Z,7.23
2018-10-11T16:28:08.752Z,7.67
2018-10-11T16:30:43.201Z,7.60
2018-10-11T16:33:17.765Z,6.70
2018-10-11T16:35:52.455Z,7.20
2018-10-11T16:38:27.093Z,6.87
2018-10-11T16:41:02.454Z,7.30
2018-10-11T16:43:37.069Z,6.70
2018-10-11T16:46:11.751Z,7.03
2018-10-11T16:48:46.232Z,7.33
2018-10-11T16:51:20.850Z,6.93
2018-10-11T16:53:55.500Z,6.93
2018-10-11T16:56:30.072Z,7.80
2018-10-11T16:59:04.717Z,6.63
2018-10-11T17:01:39.257Z,7.43
2018-10-11T17:04:13.906Z,6.80
2018-10-11T17:06:48.317Z,6.53
2018-10-11T17:09:22.860Z,6.03
2018-10-11T17:11:57.519Z,6.80
2018-10-11T17:14:32.177Z,7.03
2018-10-11T17:17:06.917Z,6.87
2018-10-11T17:19:41.565Z,6.63
2018-10-11T17:22:16.223Z,6.67
2018-10-11T17:24:51.473Z,6.20
2018-10-11T17:27:26.514Z,6.60
2018-10-11T17:30:00.953Z,7.30
2018-10-11T17:32:35.409Z,6.47
2018-10-11T17:35:10.258Z,6.60
2018-10-11T17:37:44.948Z,7.33
2018-10-11T17:40:19.542Z,6.90
2018-10-11T17:42:54.138Z,7.10
2018-10-11T17:45:28.887Z,7.00
2018-10-11T17:48:03.837Z,6.67
2018-10-11T17:50:38.409Z,7.50
2018-10-11T17:53:12.882Z,7.40
2018-10-11T17:55:47.817Z,7.60
2018-10-11T17:58:22.543Z,7.80
2018-10-11T18:00:57.910Z,7.50
2018-10-11T18:03:33.030Z,7.47
2018-10-11T18:06:08.213Z,8.10
2018-10-11T18:08:43.259Z,8.87
2018-10-11T18:11:18.973Z,8.77
2018-10-11T18:13:53.701Z,8.77
2018-10-11T18:16:28.489Z,9.30
2018-10-11T18:19:03.181Z,9.40
2018-10-11T18:21:37.768Z,8.73
2018-10-11T18:24:12.197Z,8.80
2018-10-11T18:26:50.501Z,8.87
2018-10-11T18:29:25.002Z,9.93
2018-10-11T18:31:59.813Z,9.27
2018-10-11T18:34:34.616Z,9.63
2018-10-11T18:37:09.214Z,9.10
2018-10-11T18:39:43.767Z,10.20
2018-10-11T18:42:18.764Z,10.83
2018-10-11T18:44:53.229Z,10.87
2018-10-11T18:47:27.738Z,10.63
2018-10-11T18:50:02.331Z,10.87
2018-10-11T18:52:37.929Z,11.27
2018-10-11T18:55:12.537Z,11.13
2018-10-11T18:57:47.275Z,11.67
2018-10-11T19:00:21.813Z,11.50
2018-10-11T19:02:56.396Z,11.77
2018-10-11T19:05:31.710Z,11.77
2018-10-11T19:08:06.517Z,12.60
2018-10-11T19:10:41.105Z,12.77
2018-10-11T19:13:15.798Z,11.83
2018-10-11T19:15:50.481Z,12.20
2018-10-11T19:18:25.100Z,12.27
2018-10-11T19:21:00.477Z,12.97
2018-10-11T19:23:35.494Z,12.77
2018-10-11T19:26:10.140Z,12.53
2018-10-11T19:28:44.739Z,12.87
2018-10-11T19:31:19.807Z,13.67
2018-10-11T19:33:54.533Z,13.27
2018-10-11T19:36:29.300Z,13.57
2018-10-11T19:39:04.899Z,13.73
2018-10-11T19:41:39.450Z,13.73
2018-10-11T19:44:14.039Z,13.33
2018-10-11T19:46:48.932Z,14.07
2018-10-11T19:49:23.621Z,13.23
2018-10-11T19:51:58.298Z,14.40
2018-10-11T19:54:32.842Z,14.07
2018-10-11T19:57:07.541Z,14.53
2018-10-11T19:59:42.236Z,13.67
2018-10-11T20:02:16.851Z,14.40
2018-10-11T20:04:51.385Z,13.87
2018-10-11T20:07:25.829Z,13.00
2018-10-11T20:10:00.498Z,14.13
2018-10-11T20:12:35.152Z,14.10
2018-10-11T20:15:10.057Z,13.07
2018-10-11T20:17:44.625Z,13.43
2018-10-11T20:20:19.068Z,13.33
2018-10-11T20:22:53.556Z,13.53
2018-10-11T20:25:28.149Z,14.07
2018-10-11T20:28:02.602Z,13.37
2018-10-11T20:30:37.093Z,13.53
2018-10-11T20:33:11.805Z,13.47
2018-10-11T20:35:46.458Z,14.13
2018-10-11T20:38:21.000Z,13.87
2018-10-11T20:40:55.567Z,13.80
2018-10-11T20:43:30.210Z,14.40
2018-10-11T20:46:04.763Z,13.60
2018-10-11T20:48:39.814Z,13.70
2018-10-11T20:51:14.541Z,14.43
2018-10-11T20:53:49.087Z,14.00
2018-10-11T20:56:23.810Z,13.70
2018-10-11T20:58:58.821Z,13.80
2018-10-11T21:01:33.401Z,14.13
2018-10-11T21:04:07.982Z,13.73
2018-10-11T21:06:42.749Z,13.73
2018-10-11T21:09:17.268Z,13.63
2018-10-11T21:11:51.867Z,13.80
2018-10-11T21:14:26.384Z,14.07
2018-10-11T21:17:01.334Z,14.67
2018-10-11T21:19:36.050Z,14.07
2018-10-11T21:22:10.560Z,13.53
2018-10-11T21:24:45.073Z,14.47
2018-10-11T21:27:19.909Z,13.17
2018-10-11T21:29:54.396Z,13.63
2018-10-11T21:32:29.034Z,12.80
2018-10-11T21:35:03.566Z,13.90
2018-10-11T21:37:38.331Z,12.87
2018-10-11T21:40:12.869Z,13.30
2018-10-11T21:42:47.441Z,14.00
2018-10-11T21:45:22.237Z,12.57
2018-10-11T21:50:59.596Z,14.37
2018-10-11T21:53:34.146Z,13.97
2018-10-11T21:56:08.774Z,13.17
2018-10-11T21:58:43.437Z,14.13
2018-10-11T22:01:21.813Z,12.67
2018-10-11T22:03:56.477Z,13.93
2018-10-11T22:06:31.027Z,13.80
2018-10-11T22:09:06.685Z,13.50
2018-10-11T22:11:56.340Z,13.13
2018-10-11T22:14:31.158Z,12.97
2018-10-11T22:20:05.513Z,13.67
2018-10-11T22:25:39.145Z,13.17
2018-10-11T22:28:13.810Z,13.37
2018-10-11T22:30:48.512Z,12.70
2018-10-11T22:33:23.590Z,13.30
2018-10-11T22:35:58.362Z,13.77
2018-10-11T22:38:32.949Z,13.47
2018-10-11T22:41:07.767Z,12.97
2018-10-11T22:43:42.741Z,13.27
2018-10-11T22:46:17.610Z,12.87
2018-10-11T22:48:52.376Z,13.43
2018-10-11T22:51:26.919Z,12.70
2018-10-11T22:54:01.636Z,12.37
2018-10-11T22:56:36.221Z,12.70
2018-10-11T22:59:10.716Z,11.20
2018-10-11T23:01:45.459Z,12.33
2018-10-11T23:04:19.871Z,12.03
2018-10-11T23:06:54.337Z,12.43
2018-10-11T23:09:28.880Z,11.00
2018-10-11T23:12:03.567Z,12.43
2018-10-11T23:14:38.337Z,12.17
2018-10-11T23:17:13.145Z,11.70
2018-10-11T23:19:48.044Z,11.10
2018-10-11T23:22:22.725Z,12.07
2018-10-11T23:24:57.357Z,11.63
2018-10-11T23:27:32.030Z,11.40
2018-10-11T23:30:06.853Z,10.77
2018-10-11T23:32:42.248Z,10.87
2018-10-11T23:35:16.781Z,10.73
2018-10-11T23:37:51.191Z,10.63
2018-10-11T23:40:25.862Z,10.43
2018-10-11T23:43:00.393Z,10.07
2018-10-11T23:45:35.117Z,10.33
2018-10-11T23:48:09.764Z,10.20
2018-10-11T23:50:44.425Z,10.43
2018-10-11T23:53:18.921Z,9.90
2018-10-11T23:55:53.421Z,8.53
2018-10-11T23:58:27.921Z,10.30
